sensor_id;sensor_type;location;lat;lon;timestamp;temperature;humidity
12557;DHT22;6344;49.932;8.308;2024-02-15T08:47:00;11.50;99.90
12557;DHT22;6344;49.932;8.308;2024-02-15T08:49:26;11.60;99.90
12557;DHT22;6344;49.932;8.308;2024-02-15T08:51:56;11.80;99.90
12557;DHT22;6344;49.932;8.308;2024-02-15T08:54:24;11.70;99.90
12557;DHT22;6344;49.932;8.308;2024-02-15T08:56:52;11.70;99.90
12557;DHT22;6344;49.932;8.308;2024-02-15T08:59:20;11.70;99.90
12557;DHT22;6344;49.932;8.308;2024-02-15T09:01:46;11.80;99.90
12557;DHT22;6344;49.932;8.308;2024-02-15T09:04:13;11.90;99.90
12557;DHT22;6344;49.932;8.308;2024-02-15T09:06:39;11.90;99.90
12557;DHT22;6344;49.932;8.308;2024-02-15T09:09:06;12.20;99.90
12557;DHT22;6344;49.932;8.308;2024-02-15T09:11:33;12.30;99.90
12557;DHT22;6344;49.932;8.308;2024-02-15T09:14:00;12.40;99.90
12557;DHT22;6344;49.932;8.308;2024-02-15T09:16:28;12.40;99.90
12557;DHT22;6344;49.932;8.308;2024-02-15T09:18:56;12.50;99.90
12557;DHT22;6344;49.932;8.308;2024-02-15T09:21:26;12.60;99.90
12557;DHT22;6344;49.932;8.308;2024-02-15T09:23:54;12.90;99.90
12557;DHT22;6344;49.932;8.308;2024-02-15T09:26:20;12.80;99.90
12557;DHT22;6344;49.932;8.308;2024-02-15T09:28:47;12.60;99.90
12557;DHT22;6344;49.932;8.308;2024-02-15T09:31:14;12.70;99.90
12557;DHT22;6344;49.932;8.308;2024-02-15T09:33:42;12.90;99.90
12557;DHT22;6344;49.932;8.308;2024-02-15T09:36:08;12.70;99.90
12557;DHT22;6344;49.932;8.308;2024-02-15T09:38:37;12.70;99.90
12557;DHT22;6344;49.932;8.308;2024-02-15T09:41:04;12.90;1.00
12557;DHT22;6344;49.932;8.308;2024-02-15T09:43:32;13.10;1.00
12557;DHT22;6344;49.932;8.308;2024-02-15T09:45:59;12.90;1.00
12557;DHT22;6344;49.932;8.308;2024-02-15T09:48:29;13.00;1.00
12557;DHT22;6344;49.932;8.308;2024-02-15T09:51:00;13.20;1.00
12557;DHT22;6344;49.932;8.308;2024-02-15T09:53:28;13.00;1.00
12557;DHT22;6344;49.932;8.308;2024-02-15T09:55:56;13.30;1.00
12557;DHT22;6344;49.932;8.308;2024-02-15T09:58:29;13.40;99.90
12557;DHT22;6344;49.932;8.308;2024-02-15T10:01:00;13.50;99.90
12557;DHT22;6344;49.932;8.308;2024-02-15T10:03:29;13.60;99.90
12557;DHT22;6344;49.932;8.308;2024-02-15T10:05:56;13.70;99.90
12557;DHT22;6344;49.932;8.308;2024-02-15T10:08:25;13.80;99.90
12557;DHT22;6344;49.932;8.308;2024-02-15T10:11:05;14.20;99.90
12557;DHT22;6344;49.932;8.308;2024-02-15T10:13:33;14.70;99.90
12557;DHT22;6344;49.932;8.308;2024-02-15T10:16:14;14.00;99.90
12557;DHT22;6344;49.932;8.308;2024-02-15T10:18:41;14.50;99.90
12557;DHT22;6344;49.932;8.308;2024-02-15T10:21:07;14.60;1.00
12557;DHT22;6344;49.932;8.308;2024-02-15T10:23:35;14.00;1.00
12557;DHT22;6344;49.932;8.308;2024-02-15T10:26:19;14.80;99.90
12557;DHT22;6344;49.932;8.308;2024-02-15T10:29:06;15.10;99.90
12557;DHT22;6344;49.932;8.308;2024-02-15T10:31:34;14.70;1.00
12557;DHT22;6344;49.932;8.308;2024-02-15T10:34:06;14.60;99.90
12557;DHT22;6344;49.932;8.308;2024-02-15T10:36:33;14.60;1.00
12557;DHT22;6344;49.932;8.308;2024-02-15T10:39:13;14.60;99.90
12557;DHT22;6344;49.932;8.308;2024-02-15T10:41:43;15.10;99.90
12557;DHT22;6344;49.932;8.308;2024-02-15T10:44:15;15.40;99.90
12557;DHT22;6344;49.932;8.308;2024-02-15T10:46:42;15.50;1.00
12557;DHT22;6344;49.932;8.308;2024-02-15T15:58:15;14.10;1.00
12557;DHT22;6344;49.932;8.308;2024-02-15T16:00:42;14.00;1.00
12557;DHT22;6344;49.932;8.308;2024-02-15T16:03:09;13.80;1.00
12557;DHT22;6344;49.932;8.308;2024-02-15T16:05:36;13.90;67.50
12557;DHT22;6344;49.932;8.308;2024-02-15T16:08:03;13.80;96.10
12557;DHT22;6344;49.932;8.308;2024-02-15T16:10:30;13.80;99.90
12557;DHT22;6344;49.932;8.308;2024-02-15T16:12:56;13.70;99.90
12557;DHT22;6344;49.932;8.308;2024-02-15T16:15:27;13.60;1.00
12557;DHT22;6344;49.932;8.308;2024-02-15T16:17:53;13.40;99.90
12557;DHT22;6344;49.932;8.308;2024-02-15T16:20:20;13.30;99.90
12557;DHT22;6344;49.932;8.308;2024-02-15T16:22:48;13.30;99.90
12557;DHT22;6344;49.932;8.308;2024-02-15T16:25:14;13.20;99.90
12557;DHT22;6344;49.932;8.308;2024-02-15T16:27:42;13.20;96.20
12557;DHT22;6344;49.932;8.308;2024-02-15T16:30:10;13.10;99.90
12557;DHT22;6344;49.932;8.308;2024-02-15T16:32:40;13.00;99.90
12557;DHT22;6344;49.932;8.308;2024-02-15T16:35:08;13.00;1.00
12557;DHT22;6344;49.932;8.308;2024-02-15T16:37:36;12.90;99.90
12557;DHT22;6344;49.932;8.308;2024-02-15T16:40:05;12.80;1.00
12557;DHT22;6344;49.932;8.308;2024-02-15T16:42:33;12.70;99.90
12557;DHT22;6344;49.932;8.308;2024-02-15T16:45:00;12.60;32.20
12557;DHT22;6344;49.932;8.308;2024-02-15T16:47:27;12.50;1.00
12557;DHT22;6344;49.932;8.308;2024-02-15T16:49:55;12.40;1.00
12557;DHT22;6344;49.932;8.308;2024-02-15T16:52:22;12.40;99.90
12557;DHT22;6344;49.932;8.308;2024-02-15T16:54:49;12.30;1.00
12557;DHT22;6344;49.932;8.308;2024-02-15T16:57:16;12.20;99.90
12557;DHT22;6344;49.932;8.308;2024-02-15T16:59:43;12.10;1.00
12557;DHT22;6344;49.932;8.308;2024-02-15T17:02:09;12.10;1.00
12557;DHT22;6344;49.932;8.308;2024-02-15T17:04:36;12.00;1.00
12557;DHT22;6344;49.932;8.308;2024-02-15T17:10:30;12.10;99.90
12557;DHT22;6344;49.932;8.308;2024-02-15T17:12:56;12.00;1.00
12557;DHT22;6344;49.932;8.308;2024-02-15T17:15:24;11.90;1.00
12557;DHT22;6344;49.932;8.308;2024-02-15T17:17:52;11.90;1.00
12557;DHT22;6344;49.932;8.308;2024-02-15T17:37:09;11.70;99.90
12557;DHT22;6344;49.932;8.308;2024-02-15T17:39:36;11.60;99.90
12557;DHT22;6344;49.932;8.308;2024-02-15T17:42:04;11.60;99.90
12557;DHT22;6344;49.932;8.308;2024-02-15T17:44:31;11.60;99.90
12557;DHT22;6344;49.932;8.308;2024-02-15T17:46:58;11.70;99.90
12557;DHT22;6344;49.932;8.308;2024-02-15T17:49:26;11.70;99.90
12557;DHT22;6344;49.932;8.308;2024-02-15T17:51:52;11.60;99.90
12557;DHT22;6344;49.932;8.308;2024-02-15T17:54:20;11.60;99.90
12557;DHT22;6344;49.932;8.308;2024-02-15T17:56:48;11.80;30.30
12557;DHT22;6344;49.932;8.308;2024-02-15T17:59:15;11.80;1.00
12557;DHT22;6344;49.932;8.308;2024-02-15T18:01:41;11.80;99.90
12557;DHT22;6344;49.932;8.308;2024-02-15T18:04:08;11.80;99.90
12557;DHT22;6344;49.932;8.308;2024-02-15T18:06:35;11.70;99.90
12557;DHT22;6344;49.932;8.308;2024-02-15T18:09:02;11.70;99.90
12557;DHT22;6344;49.932;8.308;2024-02-15T18:11:30;11.50;99.90
12557;DHT22;6344;49.932;8.308;2024-02-15T18:13:56;11.50;99.90
12557;DHT22;6344;49.932;8.308;2024-02-15T18:16:24;11.50;1.00
12557;DHT22;6344;49.932;8.308;2024-02-15T18:18:55;11.50;99.90
12557;DHT22;6344;49.932;8.308;2024-02-15T18:21:22;11.40;84.60
12557;DHT22;6344;49.932;8.308;2024-02-15T18:23:50;11.50;1.00
12557;DHT22;6344;49.932;8.308;2024-02-15T18:26:17;11.60;99.90
12557;DHT22;6344;49.932;8.308;2024-02-15T18:28:45;11.50;1.00
12557;DHT22;6344;49.932;8.308;2024-02-15T18:31:12;11.40;99.90
12557;DHT22;6344;49.932;8.308;2024-02-15T18:33:39;11.40;72.00
12557;DHT22;6344;49.932;8.308;2024-02-15T18:36:07;11.40;99.90
12557;DHT22;6344;49.932;8.308;2024-02-15T18:38:34;11.40;99.90
12557;DHT22;6344;49.932;8.308;2024-02-15T18:41:00;11.40;99.90
12557;DHT22;6344;49.932;8.308;2024-02-15T18:43:31;11.30;99.90
12557;DHT22;6344;49.932;8.308;2024-02-15T18:45:59;11.40;79.70
12557;DHT22;6344;49.932;8.308;2024-02-15T18:48:26;11.30;79.90
12557;DHT22;6344;49.932;8.308;2024-02-15T18:50:53;11.20;1.00
12557;DHT22;6344;49.932;8.308;2024-02-15T18:53:19;11.00;99.90
12557;DHT22;6344;49.932;8.308;2024-02-15T18:55:46;11.00;99.90
12557;DHT22;6344;49.932;8.308;2024-02-15T18:58:13;11.00;99.90
12557;DHT22;6344;49.932;8.308;2024-02-15T19:00:40;11.00;99.90
12557;DHT22;6344;49.932;8.308;2024-02-15T19:03:13;11.00;99.90
12557;DHT22;6344;49.932;8.308;2024-02-15T19:05:39;11.00;99.90
12557;DHT22;6344;49.932;8.308;2024-02-15T19:08:09;10.90;99.90
12557;DHT22;6344;49.932;8.308;2024-02-15T19:10:35;11.00;99.90
12557;DHT22;6344;49.932;8.308;2024-02-15T19:13:02;11.00;99.90
12557;DHT22;6344;49.932;8.308;2024-02-15T19:15:29;10.90;99.90
12557;DHT22;6344;49.932;8.308;2024-02-15T19:17:57;10.90;99.90
12557;DHT22;6344;49.932;8.308;2024-02-15T19:20:26;10.90;99.90
12557;DHT22;6344;49.932;8.308;2024-02-15T19:22:53;10.80;99.90
12557;DHT22;6344;49.932;8.308;2024-02-15T19:25:20;10.70;99.90
12557;DHT22;6344;49.932;8.308;2024-02-15T19:27:46;10.70;99.90
12557;DHT22;6344;49.932;8.308;2024-02-15T19:30:13;10.80;99.90
12557;DHT22;6344;49.932;8.308;2024-02-15T19:32:42;10.70;99.90
12557;DHT22;6344;49.932;8.308;2024-02-15T19:35:08;10.60;99.90
12557;DHT22;6344;49.932;8.308;2024-02-15T19:37:36;10.60;99.90
12557;DHT22;6344;49.932;8.308;2024-02-15T19:40:04;10.60;99.90
12557;DHT22;6344;49.932;8.308;2024-02-15T19:42:36;10.70;99.90
12557;DHT22;6344;49.932;8.308;2024-02-15T19:45:04;10.80;99.90
12557;DHT22;6344;49.932;8.308;2024-02-15T19:47:30;10.70;99.90
12557;DHT22;6344;49.932;8.308;2024-02-15T19:49:57;10.70;99.90
12557;DHT22;6344;49.932;8.308;2024-02-15T19:52:24;10.70;99.90
12557;DHT22;6344;49.932;8.308;2024-02-15T19:54:52;10.70;99.90
12557;DHT22;6344;49.932;8.308;2024-02-15T19:57:20;10.50;99.90
12557;DHT22;6344;49.932;8.308;2024-02-15T19:59:46;10.50;99.90
12557;DHT22;6344;49.932;8.308;2024-02-15T20:02:13;10.60;99.90
12557;DHT22;6344;49.932;8.308;2024-02-15T20:04:41;10.60;99.90
12557;DHT22;6344;49.932;8.308;2024-02-15T20:07:08;10.70;99.90
12557;DHT22;6344;49.932;8.308;2024-02-15T20:09:35;10.70;99.90
12557;DHT22;6344;49.932;8.308;2024-02-15T20:12:03;10.70;99.90
12557;DHT22;6344;49.932;8.308;2024-02-15T20:14:32;10.70;99.90
12557;DHT22;6344;49.932;8.308;2024-02-15T20:17:00;10.60;99.90
12557;DHT22;6344;49.932;8.308;2024-02-15T20:19:28;10.50;99.90
12557;DHT22;6344;49.932;8.308;2024-02-15T20:21:55;10.70;99.90
12557;DHT22;6344;49.932;8.308;2024-02-15T20:24:22;10.80;99.90
12557;DHT22;6344;49.932;8.308;2024-02-15T20:26:49;10.80;99.90
12557;DHT22;6344;49.932;8.308;2024-02-15T20:29:19;10.80;99.90
12557;DHT22;6344;49.932;8.308;2024-02-15T20:31:46;10.90;99.90
12557;DHT22;6344;49.932;8.308;2024-02-15T20:34:13;11.00;99.90
12557;DHT22;6344;49.932;8.308;2024-02-15T20:36:40;10.90;99.90
12557;DHT22;6344;49.932;8.308;2024-02-15T20:39:06;10.80;99.90
12557;DHT22;6344;49.932;8.308;2024-02-15T20:41:33;10.70;99.90
12557;DHT22;6344;49.932;8.308;2024-02-15T20:44:00;10.70;99.90
12557;DHT22;6344;49.932;8.308;2024-02-15T20:46:29;10.60;99.90
12557;DHT22;6344;49.932;8.308;2024-02-15T20:48:56;10.50;99.90
12557;DHT22;6344;49.932;8.308;2024-02-15T20:51:23;10.50;99.90
12557;DHT22;6344;49.932;8.308;2024-02-15T20:53:51;10.40;99.90
12557;DHT22;6344;49.932;8.308;2024-02-15T20:56:18;10.40;99.90
12557;DHT22;6344;49.932;8.308;2024-02-15T20:58:45;10.40;99.90
12557;DHT22;6344;49.932;8.308;2024-02-15T21:01:13;10.30;99.90
12557;DHT22;6344;49.932;8.308;2024-02-15T21:03:41;10.30;99.90
12557;DHT22;6344;49.932;8.308;2024-02-15T21:06:13;10.30;99.90
12557;DHT22;6344;49.932;8.308;2024-02-15T21:08:41;10.30;99.90
12557;DHT22;6344;49.932;8.308;2024-02-15T21:11:08;10.30;99.90
12557;DHT22;6344;49.932;8.308;2024-02-15T21:13:34;10.30;99.90
12557;DHT22;6344;49.932;8.308;2024-02-15T21:16:01;10.20;99.90
12557;DHT22;6344;49.932;8.308;2024-02-15T21:18:29;10.20;99.90
12557;DHT22;6344;49.932;8.308;2024-02-15T21:20:58;10.30;99.90
12557;DHT22;6344;49.932;8.308;2024-02-15T21:23:26;10.30;99.90
12557;DHT22;6344;49.932;8.308;2024-02-15T21:25:53;10.30;99.90
12557;DHT22;6344;49.932;8.308;2024-02-15T21:28:19;10.30;99.90
12557;DHT22;6344;49.932;8.308;2024-02-15T21:30:46;10.30;99.90
12557;DHT22;6344;49.932;8.308;2024-02-15T21:33:13;10.30;99.90
12557;DHT22;6344;49.932;8.308;2024-02-15T21:35:40;10.20;99.90
12557;DHT22;6344;49.932;8.308;2024-02-15T21:38:08;10.10;99.90
12557;DHT22;6344;49.932;8.308;2024-02-15T21:40:34;10.10;99.90
12557;DHT22;6344;49.932;8.308;2024-02-15T21:43:01;10.10;99.90
12557;DHT22;6344;49.932;8.308;2024-02-15T21:45:30;10.10;99.90
12557;DHT22;6344;49.932;8.308;2024-02-15T21:47:56;10.10;99.90
12557;DHT22;6344;49.932;8.308;2024-02-15T21:50:23;10.00;99.90
12557;DHT22;6344;49.932;8.308;2024-02-15T21:52:50;9.90;99.90
12557;DHT22;6344;49.932;8.308;2024-02-15T21:55:18;9.80;99.90
12557;DHT22;6344;49.932;8.308;2024-02-15T21:57:44;9.60;99.90
12557;DHT22;6344;49.932;8.308;2024-02-15T22:00:11;9.50;99.90
12557;DHT22;6344;49.932;8.308;2024-02-15T22:02:38;9.50;99.90
12557;DHT22;6344;49.932;8.308;2024-02-15T22:05:05;9.40;99.90
12557;DHT22;6344;49.932;8.308;2024-02-15T22:07:33;9.40;99.90
12557;DHT22;6344;49.932;8.308;2024-02-15T22:09:59;9.40;99.90
12557;DHT22;6344;49.932;8.308;2024-02-15T22:12:28;9.40;99.90
12557;DHT22;6344;49.932;8.308;2024-02-15T22:14:54;9.40;99.90
12557;DHT22;6344;49.932;8.308;2024-02-15T22:17:21;9.40;99.90
12557;DHT22;6344;49.932;8.308;2024-02-15T22:19:48;9.40;99.90
12557;DHT22;6344;49.932;8.308;2024-02-15T22:22:15;9.50;99.90
12557;DHT22;6344;49.932;8.308;2024-02-15T22:24:41;9.50;99.90
12557;DHT22;6344;49.932;8.308;2024-02-15T22:27:08;9.60;99.90
12557;DHT22;6344;49.932;8.308;2024-02-15T22:29:37;9.60;99.90
12557;DHT22;6344;49.932;8.308;2024-02-15T22:32:04;9.50;99.90
12557;DHT22;6344;49.932;8.308;2024-02-15T22:34:31;9.40;99.90
12557;DHT22;6344;49.932;8.308;2024-02-15T22:36:58;9.40;99.90
12557;DHT22;6344;49.932;8.308;2024-02-15T22:39:24;9.30;99.90
12557;DHT22;6344;49.932;8.308;2024-02-15T22:41:53;9.30;99.90
12557;DHT22;6344;49.932;8.308;2024-02-15T22:44:20;9.40;99.90
12557;DHT22;6344;49.932;8.308;2024-02-15T22:46:48;9.50;99.90
12557;DHT22;6344;49.932;8.308;2024-02-15T22:49:16;9.50;99.90
12557;DHT22;6344;49.932;8.308;2024-02-15T22:51:43;9.40;99.90
12557;DHT22;6344;49.932;8.308;2024-02-15T22:54:10;9.50;99.90
12557;DHT22;6344;49.932;8.308;2024-02-15T22:56:36;9.50;99.90
12557;DHT22;6344;49.932;8.308;2024-02-15T22:59:04;9.50;99.90
12557;DHT22;6344;49.932;8.308;2024-02-15T23:01:30;9.50;99.90
12557;DHT22;6344;49.932;8.308;2024-02-15T23:03:59;9.50;99.90
12557;DHT22;6344;49.932;8.308;2024-02-15T23:06:26;9.50;99.90
12557;DHT22;6344;49.932;8.308;2024-02-15T23:08:52;9.50;99.90
12557;DHT22;6344;49.932;8.308;2024-02-15T23:11:19;9.50;99.90
12557;DHT22;6344;49.932;8.308;2024-02-15T23:13:46;9.50;99.90
12557;DHT22;6344;49.932;8.308;2024-02-15T23:16:12;9.50;99.90
12557;DHT22;6344;49.932;8.308;2024-02-15T23:18:39;9.40;99.90
12557;DHT22;6344;49.932;8.308;2024-02-15T23:21:07;9.40;99.90
12557;DHT22;6344;49.932;8.308;2024-02-15T23:23:34;9.40;99.90
12557;DHT22;6344;49.932;8.308;2024-02-15T23:26:01;9.40;99.90
12557;DHT22;6344;49.932;8.308;2024-02-15T23:28:28;9.40;99.90
12557;DHT22;6344;49.932;8.308;2024-02-15T23:30:55;9.40;99.90
12557;DHT22;6344;49.932;8.308;2024-02-15T23:33:21;9.40;99.90
12557;DHT22;6344;49.932;8.308;2024-02-15T23:35:48;9.40;99.90
12557;DHT22;6344;49.932;8.308;2024-02-15T23:38:30;9.40;99.90
12557;DHT22;6344;49.932;8.308;2024-02-15T23:41:19;9.40;99.90
12557;DHT22;6344;49.932;8.308;2024-02-15T23:43:46;9.40;99.90
12557;DHT22;6344;49.932;8.308;2024-02-15T23:46:13;9.40;99.90
12557;DHT22;6344;49.932;8.308;2024-02-15T23:48:40;9.30;99.90
12557;DHT22;6344;49.932;8.308;2024-02-15T23:51:09;9.20;99.90
12557;DHT22;6344;49.932;8.308;2024-02-15T23:53:37;9.30;99.90
12557;DHT22;6344;49.932;8.308;2024-02-15T23:56:06;9.20;99.90
12557;DHT22;6344;49.932;8.308;2024-02-15T23:58:34;9.30;99.90
